Time;durP1;ratioP1;P1;durP2;ratioP2;P2;SDS_P1;SDS_P2;PMS_P1;PMS_P2;Temp;Humidity;BMP_temperature;BMP_pressure;BME280_temperature;BME280_humidity;BME280_pressure;Samples;Min_cycle;Max_cycle;Signal;HPM_P1;HPM_P2
2022/09/16 00:01:39;;;;;;;4.03;1.40;;;;;;;;;;4984066;28;20396;-73
2022/09/16 00:04:05;;;;;;;3.00;1.33;;;;;;;;;;4950998;28;20047;-75
2022/09/16 00:06:31;;;;;;;3.35;1.40;;;;;;;;;;4966942;28;20524;-74
2022/09/16 00:09:02;;;;;;;2.55;1.27;;;;;;;;;;4952481;28;20058;-75
2022/09/16 00:11:33;;;;;;;3.28;1.25;;;;;;;;;;4952009;28;20047;-75
2022/09/16 00:13:59;;;;;;;5.63;1.40;;;;;;;;;;4947161;28;20302;-75
2022/09/16 00:16:27;;;;;;;6.00;1.45;;;;;;;;;;4944293;28;20144;-76
2022/09/16 00:18:58;;;;;;;4.60;1.40;;;;;;;;;;4964476;28;20456;-74
2022/09/16 00:21:26;;;;;;;4.72;1.83;;;;;;;;;;4947512;28;20481;-74
2022/09/16 00:23:52;;;;;;;7.85;1.60;;;;;;;;;;4947873;28;20051;-74
2022/09/16 00:26:18;;;;;;;5.32;1.60;;;;;;;;;;4950431;28;20102;-74
2022/09/16 00:28:48;;;;;;;4.88;1.50;;;;;;;;;;4953067;28;20043;-73
2022/09/16 00:31:14;;;;;;;3.38;1.50;;;;;;;;;;4952351;28;20047;-74
2022/09/16 00:33:40;;;;;;;6.65;1.50;;;;;;;;;;4951018;28;20047;-75
2022/09/16 00:36:13;;;;;;;2.90;1.30;;;;;;;;;;4950396;28;20097;-75
2022/09/16 00:38:40;;;;;;;3.70;1.42;;;;;;;;;;4951577;28;20485;-76
2022/09/16 00:41:06;;;;;;;7.18;1.45;;;;;;;;;;4951496;28;20051;-74
2022/09/16 00:43:55;;;;;;;3.53;1.65;;;;;;;;;;4949356;28;20478;-74
2022/09/16 00:46:34;;;;;;;3.47;1.40;;;;;;;;;;4954780;28;20043;-74
2022/09/16 00:49:08;;;;;;;5.35;1.40;;;;;;;;;;4959038;28;20058;-74
2022/09/16 00:51:34;;;;;;;4.87;1.53;;;;;;;;;;4947623;28;20047;-75
2022/09/16 00:54:02;;;;;;;3.45;1.40;;;;;;;;;;4947593;28;20301;-77
2022/09/16 00:56:34;;;;;;;3.53;1.30;;;;;;;;;;4950295;28;20047;-75
2022/09/16 00:59:12;;;;;;;3.50;1.23;;;;;;;;;;4950743;28;20055;-75
2022/09/16 01:01:41;;;;;;;3.53;1.38;;;;;;;;;;4948129;28;20482;-76
2022/09/16 01:04:16;;;;;;;2.53;1.30;;;;;;;;;;4950022;28;20165;-74
2022/09/16 01:06:42;;;;;;;3.85;1.48;;;;;;;;;;4948459;28;20546;-74
2022/09/16 01:09:08;;;;;;;5.05;1.52;;;;;;;;;;4950903;28;20114;-74
2022/09/16 01:11:34;;;;;;;2.80;1.50;;;;;;;;;;4954631;28;20047;-75
2022/09/16 01:17:14;;;;;;;4.45;1.60;;;;;;;;;;4956786;29;20043;-74
2022/09/16 01:20:04;;;;;;;3.80;1.45;;;;;;;;;;4948775;28;20055;-77
2022/09/16 01:22:48;;;;;;;5.55;1.60;;;;;;;;;;4953178;28;20110;-74
2022/09/16 01:25:57;;;;;;;2.80;1.40;;;;;;;;;;4953226;28;20047;-77
2022/09/16 01:29:21;;;;;;;2.88;1.58;;;;;;;;;;4946283;28;20042;-75
2022/09/16 01:32:14;;;;;;;3.10;1.38;;;;;;;;;;4891432;29;20147;-75
2022/09/16 01:34:46;;;;;;;5.15;1.50;;;;;;;;;;4892364;29;20048;-73
2022/09/16 01:37:12;;;;;;;3.42;1.30;;;;;;;;;;4890235;29;20044;-75
2022/09/16 01:39:40;;;;;;;4.43;1.10;;;;;;;;;;4893578;29;20534;-72
2022/09/16 01:42:31;;;;;;;3.28;1.17;;;;;;;;;;4893125;29;20135;-74
2022/09/16 01:45:11;;;;;;;4.28;1.30;;;;;;;;;;4894575;29;20067;-74
2022/09/16 01:48:04;;;;;;;4.93;1.50;;;;;;;;;;4895459;29;20095;-75
2022/09/16 01:50:43;;;;;;;4.03;1.25;;;;;;;;;;4886389;29;20486;-77
2022/09/16 01:53:12;;;;;;;2.80;1.30;;;;;;;;;;4892515;29;20051;-75
2022/09/16 01:55:40;;;;;;;2.92;1.30;;;;;;;;;;4895029;29;20165;-75
2022/09/16 01:58:17;;;;;;;3.92;1.05;;;;;;;;;;4889899;29;20554;-74
2022/09/16 02:00:45;;;;;;;3.85;1.23;;;;;;;;;;4892677;29;20092;-74
2022/09/16 02:03:25;;;;;;;3.88;1.10;;;;;;;;;;4891250;29;20593;-74
2022/09/16 02:05:59;;;;;;;3.05;1.08;;;;;;;;;;4892069;29;20617;-74
2022/09/16 02:08:35;;;;;;;4.28;1.15;;;;;;;;;;4927788;28;20058;-76
2022/09/16 02:11:05;;;;;;;5.63;1.30;;;;;;;;;;4945543;28;20055;-75
2022/09/16 02:13:41;;;;;;;3.75;1.17;;;;;;;;;;4951307;28;20047;-74
2022/09/16 02:16:12;;;;;;;3.95;1.35;;;;;;;;;;4953669;28;20194;-74
2022/09/16 02:18:42;;;;;;;3.45;1.17;;;;;;;;;;4953025;28;20137;-75
2022/09/16 02:21:13;;;;;;;2.85;1.30;;;;;;;;;;4953138;28;20051;-75
2022/09/16 02:23:49;;;;;;;2.45;1.30;;;;;;;;;;4949579;28;20127;-75
2022/09/16 02:26:20;;;;;;;3.38;1.35;;;;;;;;;;4951570;28;20059;-72
2022/09/16 02:28:48;;;;;;;2.78;1.20;;;;;;;;;;4952795;28;20047;-73
2022/09/16 02:31:15;;;;;;;3.17;1.50;;;;;;;;;;4951310;28;20456;-74
2022/09/16 02:33:50;;;;;;;2.67;1.40;;;;;;;;;;4951957;28;20047;-75
2022/09/16 02:36:20;;;;;;;7.00;1.30;;;;;;;;;;4950975;29;20054;-75
2022/09/16 02:39:03;;;;;;;3.28;1.30;;;;;;;;;;4955351;28;20121;-74
2022/09/16 02:41:29;;;;;;;4.38;1.80;;;;;;;;;;4955773;28;20130;-74
2022/09/16 02:43:55;;;;;;;6.07;1.40;;;;;;;;;;4966164;28;20056;-74
2022/09/16 02:46:47;;;;;;;2.92;1.33;;;;;;;;;;4950344;28;20096;-75
2022/09/16 02:49:20;;;;;;;4.28;1.50;;;;;;;;;;4951659;28;20494;-74
2022/09/16 02:51:57;;;;;;;4.25;1.23;;;;;;;;;;4950976;28;20131;-74
2022/09/16 02:54:29;;;;;;;3.92;1.42;;;;;;;;;;4955475;28;20062;-74
2022/09/16 02:56:56;;;;;;;3.92;1.05;;;;;;;;;;4943089;28;20493;-74
2022/09/16 02:59:23;;;;;;;5.97;1.42;;;;;;;;;;4950248;28;20086;-75
2022/09/16 03:01:49;;;;;;;4.68;1.48;;;;;;;;;;4953821;28;20464;-75
2022/09/16 03:04:18;;;;;;;4.30;1.42;;;;;;;;;;4952908;28;20043;-73
2022/09/16 03:06:44;;;;;;;3.35;1.30;;;;;;;;;;4948846;28;20047;-73
2022/09/16 03:09:13;;;;;;;4.32;1.30;;;;;;;;;;4950358;28;20045;-73
2022/09/16 03:12:05;;;;;;;3.63;1.17;;;;;;;;;;4949828;28;20035;-75
2022/09/16 03:15:02;;;;;;;2.85;1.40;;;;;;;;;;4960387;28;20113;-75
2022/09/16 03:17:47;;;;;;;2.63;1.02;;;;;;;;;;4949786;29;20553;-76
2022/09/16 03:20:31;;;;;;;3.85;1.50;;;;;;;;;;4951371;28;20130;-73
2022/09/16 03:23:28;;;;;;;3.38;1.20;;;;;;;;;;4944973;28;20510;-74
2022/09/16 03:26:19;;;;;;;2.00;1.35;;;;;;;;;;4948574;28;20424;-73
2022/09/16 03:29:08;;;;;;;4.20;1.20;;;;;;;;;;4950107;28;20071;-73
2022/09/16 03:31:38;;;;;;;6.90;1.70;;;;;;;;;;4947707;28;20046;-75
2022/09/16 03:34:16;;;;;;;4.57;1.40;;;;;;;;;;4950936;28;20047;-73
2022/09/16 03:36:51;;;;;;;2.90;1.30;;;;;;;;;;4948637;28;20359;-73
2022/09/16 03:39:18;;;;;;;4.50;1.30;;;;;;;;;;4948295;28;20174;-73
2022/09/16 03:41:44;;;;;;;6.35;1.30;;;;;;;;;;4949672;28;20110;-74
2022/09/16 03:44:10;;;;;;;2.92;1.95;;;;;;;;;;4948146;28;20050;-73
2022/09/16 03:46:36;;;;;;;4.07;1.38;;;;;;;;;;4972521;28;20043;-73
2022/09/16 03:49:02;;;;;;;11.35;2.00;;;;;;;;;;4962209;28;20130;-72
2022/09/16 03:51:27;;;;;;;8.02;1.60;;;;;;;;;;4953125;28;20046;-73
2022/09/16 03:53:53;;;;;;;10.10;1.45;;;;;;;;;;4951950;28;20059;-73
2022/09/16 03:56:21;;;;;;;5.00;1.52;;;;;;;;;;4947373;28;20138;-73
2022/09/16 03:58:47;;;;;;;4.20;1.88;;;;;;;;;;4950456;28;20319;-72
2022/09/16 04:01:13;;;;;;;6.72;1.63;;;;;;;;;;4948273;28;20051;-74
2022/09/16 04:03:39;;;;;;;3.70;1.63;;;;;;;;;;4950003;28;20043;-72
2022/09/16 04:06:05;;;;;;;4.90;1.77;;;;;;;;;;4947725;28;20130;-73
2022/09/16 04:08:31;;;;;;;6.82;1.70;;;;;;;;;;4947745;28;20190;-74
2022/09/16 04:10:59;;;;;;;4.55;1.80;;;;;;;;;;4946931;28;20278;-73
2022/09/16 04:13:28;;;;;;;4.43;1.45;;;;;;;;;;4950984;28;20516;-76
2022/09/16 04:15:54;;;;;;;5.68;1.60;;;;;;;;;;4951067;28;20059;-75
2022/09/16 04:18:20;;;;;;;3.53;1.33;;;;;;;;;;4949833;28;20055;-75
2022/09/16 04:20:46;;;;;;;3.80;1.80;;;;;;;;;;4952005;28;20142;-75
2022/09/16 04:23:12;;;;;;;3.53;1.45;;;;;;;;;;4951025;28;20055;-74
2022/09/16 04:25:39;;;;;;;2.72;1.52;;;;;;;;;;4950124;28;20504;-75
2022/09/16 04:28:06;;;;;;;5.40;1.55;;;;;;;;;;4948500;28;20138;-74
2022/09/16 04:30:32;;;;;;;10.80;1.90;;;;;;;;;;4944543;28;20118;-76
2022/09/16 04:32:58;;;;;;;6.70;1.60;;;;;;;;;;4948774;28;20089;-74
2022/09/16 04:35:24;;;;;;;5.40;1.50;;;;;;;;;;4949212;28;20493;-73
2022/09/16 04:37:50;;;;;;;4.45;1.95;;;;;;;;;;4950039;28;20062;-74
2022/09/16 04:40:16;;;;;;;5.70;2.00;;;;;;;;;;4951499;28;20051;-75
2022/09/16 04:42:51;;;;;;;9.55;2.22;;;;;;;;;;4949151;28;20062;-74
2022/09/16 04:45:17;;;;;;;5.68;1.90;;;;;;;;;;4945890;28;20477;-74
2022/09/16 04:47:43;;;;;;;3.90;1.75;;;;;;;;;;4939527;28;20040;-74
2022/09/16 04:50:10;;;;;;;4.30;1.90;;;;;;;;;;4947129;28;20061;-74
2022/09/16 04:52:36;;;;;;;3.70;1.50;;;;;;;;;;4949067;28;20051;-74
2022/09/16 04:55:01;;;;;;;9.25;2.20;;;;;;;;;;4952623;28;20047;-74
2022/09/16 04:57:31;;;;;;;5.15;2.33;;;;;;;;;;4947906;28;20083;-75
2022/09/16 04:59:57;;;;;;;4.82;1.75;;;;;;;;;;4947261;28;20047;-74
2022/09/16 05:02:23;;;;;;;4.47;1.73;;;;;;;;;;4945784;28;20055;-76
2022/09/16 05:04:49;;;;;;;4.00;1.52;;;;;;;;;;4962991;28;20047;-76
2022/09/16 05:07:15;;;;;;;4.05;1.95;;;;;;;;;;4943962;28;20058;-74
2022/09/16 05:09:41;;;;;;;6.93;2.35;;;;;;;;;;4953305;28;20043;-74
2022/09/16 05:12:07;;;;;;;6.88;2.00;;;;;;;;;;4956071;28;20048;-76
2022/09/16 05:14:33;;;;;;;5.22;1.60;;;;;;;;;;4960637;28;20476;-75
2022/09/16 05:16:59;;;;;;;4.55;1.40;;;;;;;;;;4949147;28;20051;-75
2022/09/16 05:19:24;;;;;;;6.53;1.50;;;;;;;;;;4945786;28;20066;-75
2022/09/16 05:21:50;;;;;;;6.55;2.17;;;;;;;;;;4950319;28;20043;-76
2022/09/16 05:24:16;;;;;;;7.32;1.80;;;;;;;;;;4954057;28;20051;-76
2022/09/16 05:26:42;;;;;;;8.40;1.70;;;;;;;;;;4950678;28;20489;-77
2022/09/16 05:29:14;;;;;;;4.28;1.40;;;;;;;;;;4949889;28;20079;-71
2022/09/16 05:31:42;;;;;;;7.50;1.80;;;;;;;;;;4933406;28;20051;-74
2022/09/16 05:34:12;;;;;;;5.13;1.60;;;;;;;;;;4937805;28;20130;-75
2022/09/16 05:36:40;;;;;;;5.30;1.60;;;;;;;;;;4936889;28;20051;-76
2022/09/16 05:39:06;;;;;;;4.68;1.48;;;;;;;;;;4943984;28;20087;-76
2022/09/16 05:41:32;;;;;;;7.88;1.50;;;;;;;;;;4943437;28;20094;-73
2022/09/16 05:43:59;;;;;;;3.70;1.50;;;;;;;;;;4942779;28;20552;-75
2022/09/16 05:46:26;;;;;;;2.80;1.30;;;;;;;;;;4941026;28;20528;-71
2022/09/16 05:48:51;;;;;;;6.43;1.90;;;;;;;;;;4941518;28;20417;-72
2022/09/16 05:51:20;;;;;;;9.30;1.58;;;;;;;;;;4940255;28;20051;-71
2022/09/16 05:53:47;;;;;;;3.63;1.40;;;;;;;;;;4942964;28;20498;-76
2022/09/16 05:56:14;;;;;;;6.63;1.52;;;;;;;;;;4944094;28;20044;-71
2022/09/16 05:58:41;;;;;;;7.30;1.52;;;;;;;;;;4938544;28;20247;-72
2022/09/16 06:01:15;;;;;;;5.47;1.65;;;;;;;;;;4940614;28;20050;-73
2022/09/16 06:03:44;;;;;;;8.43;2.58;;;;;;;;;;4944745;28;20051;-73
2022/09/16 06:06:32;;;;;;;4.60;1.70;;;;;;;;;;4944489;28;20070;-75
2022/09/16 06:09:09;;;;;;;6.90;2.03;;;;;;;;;;4946457;28;20059;-75
2022/09/16 06:11:38;;;;;;;10.18;1.50;;;;;;;;;;4948007;28;20493;-73
2022/09/16 06:14:04;;;;;;;7.93;1.90;;;;;;;;;;4949333;29;20113;-73
2022/09/16 06:16:34;;;;;;;4.63;1.67;;;;;;;;;;4950968;28;20961;-77
2022/09/16 06:19:03;;;;;;;10.05;1.77;;;;;;;;;;4952008;28;20086;-73
2022/09/16 06:21:29;;;;;;;5.97;2.00;;;;;;;;;;4941528;28;20111;-73
2022/09/16 06:23:56;;;;;;;6.75;1.77;;;;;;;;;;4948921;28;20134;-72
2022/09/16 06:26:23;;;;;;;8.45;1.85;;;;;;;;;;4985363;28;20043;-74
2022/09/16 06:28:50;;;;;;;8.65;1.92;;;;;;;;;;4950949;28;20510;-79
2022/09/16 06:31:19;;;;;;;5.72;1.90;;;;;;;;;;4959982;28;20039;-74
2022/09/16 06:33:45;;;;;;;6.70;1.75;;;;;;;;;;4955540;28;20086;-72
2022/09/16 06:36:14;;;;;;;7.60;1.95;;;;;;;;;;4970007;28;20106;-74
2022/09/16 06:38:40;;;;;;;5.63;1.60;;;;;;;;;;4952150;28;20066;-72
2022/09/16 06:41:08;;;;;;;6.40;1.60;;;;;;;;;;4951013;28;20493;-73
2022/09/16 06:43:34;;;;;;;8.43;1.85;;;;;;;;;;4949927;28;20070;-75
2022/09/16 06:46:12;;;;;;;5.30;2.20;;;;;;;;;;4953837;28;20409;-69
2022/09/16 06:48:39;;;;;;;5.03;1.50;;;;;;;;;;4948244;28;20052;-72
2022/09/16 06:51:10;;;;;;;6.80;1.88;;;;;;;;;;4951611;28;20073;-72
2022/09/16 06:53:36;;;;;;;4.97;1.85;;;;;;;;;;4950508;28;20449;-73
2022/09/16 06:56:09;;;;;;;6.20;1.92;;;;;;;;;;4956151;28;20070;-71
2022/09/16 06:58:36;;;;;;;12.57;2.10;;;;;;;;;;4948486;28;20055;-73
2022/09/16 07:01:12;;;;;;;9.40;2.70;;;;;;;;;;4949470;28;20047;-73
2022/09/16 07:03:43;;;;;;;8.48;2.30;;;;;;;;;;4948676;28;20093;-72
2022/09/16 07:06:10;;;;;;;8.77;2.50;;;;;;;;;;4948899;28;20054;-73
2022/09/16 07:08:37;;;;;;;8.48;2.15;;;;;;;;;;4948012;28;20047;-73
2022/09/16 07:11:12;;;;;;;11.60;2.30;;;;;;;;;;4945304;28;20126;-73
2022/09/16 07:13:39;;;;;;;10.07;2.58;;;;;;;;;;4948030;28;20066;-71
2022/09/16 07:16:19;;;;;;;10.50;2.72;;;;;;;;;;4955005;28;20062;-74
2022/09/16 07:18:47;;;;;;;9.57;2.70;;;;;;;;;;4948066;28;20062;-73
2022/09/16 07:21:14;;;;;;;10.60;2.33;;;;;;;;;;4947520;28;20051;-73
2022/09/16 07:23:41;;;;;;;12.18;2.75;;;;;;;;;;4946260;28;20441;-72
2022/09/16 07:26:14;;;;;;;9.90;2.92;;;;;;;;;;4948940;28;20049;-73
2022/09/16 07:28:42;;;;;;;9.63;2.45;;;;;;;;;;4949356;28;20051;-75
2022/09/16 07:31:10;;;;;;;9.23;3.00;;;;;;;;;;4949460;28;20560;-72
2022/09/16 07:33:38;;;;;;;18.30;3.72;;;;;;;;;;4947813;28;20135;-71
2022/09/16 07:36:06;;;;;;;10.63;3.30;;;;;;;;;;4949171;28;20312;-72
2022/09/16 07:38:33;;;;;;;9.52;2.88;;;;;;;;;;4950829;28;20429;-75
2022/09/16 07:41:07;;;;;;;11.32;2.83;;;;;;;;;;4942747;28;20505;-73
2022/09/16 07:43:33;;;;;;;6.50;3.13;;;;;;;;;;4948833;28;20540;-72
2022/09/16 07:45:59;;;;;;;10.40;2.80;;;;;;;;;;4949500;28;20043;-74
2022/09/16 07:48:28;;;;;;;9.57;2.55;;;;;;;;;;4952898;28;20047;-70
2022/09/16 07:50:56;;;;;;;17.15;3.15;;;;;;;;;;4950778;28;20047;-73
2022/09/16 07:53:22;;;;;;;14.52;2.75;;;;;;;;;;4948761;28;20051;-72
2022/09/16 07:55:48;;;;;;;7.40;2.35;;;;;;;;;;4950329;28;20117;-71
2022/09/16 07:58:14;;;;;;;6.57;1.80;;;;;;;;;;4947309;28;20501;-73
2022/09/16 08:00:42;;;;;;;16.42;2.70;;;;;;;;;;4945602;28;20073;-73
2022/09/16 08:03:08;;;;;;;13.73;2.20;;;;;;;;;;4947614;28;20047;-72
2022/09/16 08:05:35;;;;;;;8.82;1.92;;;;;;;;;;4946118;28;20043;-73
2022/09/16 08:08:01;;;;;;;8.35;2.15;;;;;;;;;;4946350;28;20396;-73
2022/09/16 08:10:27;;;;;;;6.47;1.70;;;;;;;;;;4964067;28;20540;-73
2022/09/16 08:12:53;;;;;;;10.13;1.85;;;;;;;;;;4950364;28;20498;-73
2022/09/16 08:15:19;;;;;;;6.82;2.00;;;;;;;;;;4946212;28;20089;-72
2022/09/16 08:17:44;;;;;;;7.47;2.50;;;;;;;;;;4965028;28;20059;-72
2022/09/16 08:20:10;;;;;;;9.40;2.05;;;;;;;;;;4951486;28;20521;-73
2022/09/16 08:22:36;;;;;;;7.03;1.65;;;;;;;;;;4948078;28;20087;-72
2022/09/16 08:25:02;;;;;;;7.90;1.80;;;;;;;;;;4949923;28;20047;-74
2022/09/16 08:27:29;;;;;;;6.90;1.63;;;;;;;;;;4947429;28;20059;-73
2022/09/16 08:29:54;;;;;;;5.63;1.63;;;;;;;;;;4949373;28;20074;-73
2022/09/16 08:32:20;;;;;;;6.13;1.80;;;;;;;;;;4946600;28;20084;-71
2022/09/16 08:34:47;;;;;;;6.60;1.75;;;;;;;;;;4945931;28;20117;-72
2022/09/16 08:37:13;;;;;;;5.30;1.65;;;;;;;;;;4946981;28;20039;-72
2022/09/16 08:39:39;;;;;;;7.63;3.60;;;;;;;;;;4949038;28;20400;-73
2022/09/16 08:42:38;;;;;;;9.52;2.70;;;;;;;;;;4940492;28;20059;-75
2022/09/16 08:45:22;;;;;;;10.75;1.80;;;;;;;;;;4949679;28;20051;-76
2022/09/16 08:48:17;;;;;;;4.03;1.70;;;;;;;;;;4946452;28;20064;-73
2022/09/16 08:50:46;;;;;;;8.80;1.90;;;;;;;;;;4944257;28;20050;-73
2022/09/16 08:53:22;;;;;;;10.57;2.25;;;;;;;;;;4948797;28;20455;-74
2022/09/16 08:55:50;;;;;;;5.80;2.20;;;;;;;;;;4948447;28;20287;-69
2022/09/16 08:58:27;;;;;;;4.15;2.00;;;;;;;;;;4949828;28;20561;-68
2022/09/16 09:01:01;;;;;;;6.82;1.90;;;;;;;;;;4952507;28;20058;-81
2022/09/16 09:03:37;;;;;;;3.53;1.75;;;;;;;;;;4951181;28;20094;-74
2022/09/16 09:06:12;;;;;;;6.30;1.70;;;;;;;;;;4948057;28;20098;-71
2022/09/16 09:08:54;;;;;;;3.67;1.60;;;;;;;;;;4948044;28;20047;-69
2022/09/16 09:11:26;;;;;;;5.57;1.58;;;;;;;;;;4948935;28;20059;-71
2022/09/16 09:14:07;;;;;;;6.18;1.88;;;;;;;;;;4941155;28;20113;-70
2022/09/16 09:16:48;;;;;;;8.70;2.15;;;;;;;;;;4967617;28;20063;-77
2022/09/16 09:19:55;;;;;;;6.78;1.63;;;;;;;;;;4951323;28;20079;-71
2022/09/16 09:22:36;;;;;;;5.30;1.80;;;;;;;;;;4936021;29;20517;-69
2022/09/16 09:25:21;;;;;;;8.18;1.90;;;;;;;;;;4963720;28;20046;-70
2022/09/16 09:27:55;;;;;;;6.22;1.80;;;;;;;;;;4949355;29;20485;-70
2022/09/16 09:30:24;;;;;;;5.03;1.45;;;;;;;;;;4949757;28;21187;-70
2022/09/16 09:33:34;;;;;;;5.43;1.95;;;;;;;;;;4949910;29;20051;-71
2022/09/16 09:36:23;;;;;;;4.22;1.42;;;;;;;;;;4925512;28;20078;-76
2022/09/16 09:39:23;;;;;;;6.63;2.10;;;;;;;;;;4968357;28;20046;-73
2022/09/16 09:42:15;;;;;;;5.60;1.60;;;;;;;;;;4949022;28;20505;-72
2022/09/16 09:44:50;;;;;;;6.22;2.00;;;;;;;;;;4941663;28;20047;-71
2022/09/16 09:47:20;;;;;;;4.35;1.60;;;;;;;;;;4963633;28;20184;-73
2022/09/16 09:49:53;;;;;;;11.85;2.80;;;;;;;;;;4955141;28;20087;-71
2022/09/16 09:52:32;;;;;;;12.18;2.20;;;;;;;;;;4948814;28;20101;-74
2022/09/16 09:55:19;;;;;;;7.97;2.03;;;;;;;;;;4954377;28;20047;-71
2022/09/16 09:58:04;;;;;;;6.07;1.92;;;;;;;;;;4952815;28;20089;-74
2022/09/16 10:00:30;;;;;;;8.52;2.08;;;;;;;;;;4952666;28;20440;-71
2022/09/16 10:03:25;;;;;;;8.32;1.73;;;;;;;;;;4952219;28;20459;-71
2022/09/16 10:05:51;;;;;;;5.28;2.03;;;;;;;;;;4947393;28;20093;-71
2022/09/16 10:08:44;;;;;;;5.05;1.67;;;;;;;;;;4966978;28;20047;-75
2022/09/16 10:11:30;;;;;;;6.70;1.90;;;;;;;;;;4944650;28;20409;-73
2022/09/16 10:13:59;;;;;;;6.50;1.60;;;;;;;;;;4952991;28;20062;-71
2022/09/16 10:16:33;;;;;;;5.20;1.60;;;;;;;;;;4953153;28;20055;-71
2022/09/16 10:19:01;;;;;;;;;;;;;;;;;;4942461;29;20090;-71
2022/09/16 10:21:40;;;;;;;7.32;1.63;;;;;;;;;;4955322;28;19922;-72
2022/09/16 10:24:22;;;;;;;8.80;1.75;;;;;;;;;;4951287;28;20059;-70
2022/09/16 10:26:48;;;;;;;5.25;1.75;;;;;;;;;;4953151;28;20059;-70
2022/09/16 10:29:18;;;;;;;5.05;1.58;;;;;;;;;;4953759;28;20520;-73
2022/09/16 10:31:44;;;;;;;8.52;1.90;;;;;;;;;;4953373;28;20055;-71
2022/09/16 10:34:22;;;;;;;6.15;2.00;;;;;;;;;;4953193;28;20047;-72
2022/09/16 10:36:59;;;;;;;8.27;2.40;;;;;;;;;;4954108;28;20051;-72
2022/09/16 10:39:27;;;;;;;10.98;3.72;;;;;;;;;;4960610;28;20091;-71
2022/09/16 10:41:53;;;;;;;10.20;1.90;;;;;;;;;;4970621;28;20439;-70
2022/09/16 10:44:31;;;;;;;14.82;3.75;;;;;;;;;;4953074;28;20047;-69
2022/09/16 10:47:01;;;;;;;6.85;2.22;;;;;;;;;;4961156;28;20070;-73
2022/09/16 10:49:43;;;;;;;6.47;2.38;;;;;;;;;;4934260;29;20091;-72
2022/09/16 10:52:42;;;;;;;7.43;2.25;;;;;;;;;;4953002;29;20043;-71
2022/09/16 10:55:37;;;;;;;6.68;1.88;;;;;;;;;;4949282;28;20402;-71
2022/09/16 10:58:16;;;;;;;3.05;1.45;;;;;;;;;;4959156;28;20071;-71
2022/09/16 11:00:57;;;;;;;7.00;1.98;;;;;;;;;;4955883;28;20172;-70
2022/09/16 11:03:52;;;;;;;9.18;1.90;;;;;;;;;;4953561;28;20051;-70
2022/09/16 11:06:36;;;;;;;4.75;1.80;;;;;;;;;;4948318;29;20130;-72
2022/09/16 11:09:27;;;;;;;5.60;1.60;;;;;;;;;;4954803;28;20078;-71
2022/09/16 11:12:14;;;;;;;6.80;2.00;;;;;;;;;;4954780;28;20067;-73
2022/09/16 11:15:02;;;;;;;4.88;1.92;;;;;;;;;;4955949;28;20505;-72
2022/09/16 11:17:42;;;;;;;5.80;1.50;;;;;;;;;;4958445;28;20097;-70
2022/09/16 11:20:14;;;;;;;5.18;1.55;;;;;;;;;;4953849;28;20512;-71
2022/09/16 11:22:48;;;;;;;7.38;1.88;;;;;;;;;;4965025;28;20050;-70
2022/09/16 11:25:30;;;;;;;7.30;2.15;;;;;;;;;;4974096;28;20109;-71
2022/09/16 11:28:23;;;;;;;6.65;1.88;;;;;;;;;;4963723;28;20074;-72
2022/09/16 11:31:03;;;;;;;5.00;1.83;;;;;;;;;;4952254;28;20090;-71
2022/09/16 11:33:44;;;;;;;4.65;1.50;;;;;;;;;;4953518;28;20489;-74
2022/09/16 11:36:36;;;;;;;6.45;1.80;;;;;;;;;;4949852;28;20129;-77
2022/09/16 11:39:24;;;;;;;7.07;1.60;;;;;;;;;;4954833;28;20049;-74
2022/09/16 11:41:58;;;;;;;5.93;1.70;;;;;;;;;;4954823;28;20134;-72
2022/09/16 11:44:59;;;;;;;5.43;1.70;;;;;;;;;;4946415;28;20051;-73
2022/09/16 11:47:43;;;;;;;4.35;1.45;;;;;;;;;;4955307;28;20230;-73
2022/09/16 11:50:12;;;;;;;4.25;1.95;;;;;;;;;;4949844;28;20505;-71
2022/09/16 11:52:53;;;;;;;7.32;2.20;;;;;;;;;;4951732;28;20413;-72
2022/09/16 11:55:21;;;;;;;6.30;1.70;;;;;;;;;;4954657;28;20062;-70
2022/09/16 11:57:54;;;;;;;11.20;1.80;;;;;;;;;;4967311;28;20047;-77
2022/09/16 12:00:20;;;;;;;3.20;1.65;;;;;;;;;;4939056;29;20051;-72
2022/09/16 12:03:03;;;;;;;5.97;1.70;;;;;;;;;;4944905;28;20066;-72
2022/09/16 12:05:52;;;;;;;4.05;1.60;;;;;;;;;;4952697;28;20553;-74
2022/09/16 12:08:46;;;;;;;5.80;2.35;;;;;;;;;;4963324;28;20178;-69
2022/09/16 12:11:18;;;;;;;5.55;1.90;;;;;;;;;;4953456;28;20383;-71
2022/09/16 12:13:56;;;;;;;5.90;1.83;;;;;;;;;;4952138;28;20050;-69
2022/09/16 12:16:38;;;;;;;7.22;1.90;;;;;;;;;;4965382;28;20051;-70
2022/09/16 12:19:18;;;;;;;6.22;2.35;;;;;;;;;;4933581;29;20056;-74
2022/09/16 12:21:59;;;;;;;4.28;1.75;;;;;;;;;;4947213;29;20047;-72
2022/09/16 12:24:49;;;;;;;5.35;1.75;;;;;;;;;;4953977;28;20047;-72
2022/09/16 12:27:40;;;;;;;7.63;1.80;;;;;;;;;;4941045;28;20049;-69
2022/09/16 12:30:19;;;;;;;5.40;1.50;;;;;;;;;;4954747;28;20059;-76
2022/09/16 12:32:54;;;;;;;2.90;1.45;;;;;;;;;;4941412;29;20212;-73
2022/09/16 12:35:28;;;;;;;4.03;1.52;;;;;;;;;;4953933;28;20397;-75
2022/09/16 12:37:54;;;;;;;4.25;1.40;;;;;;;;;;4968043;28;20079;-70
2022/09/16 12:40:31;;;;;;;3.53;1.70;;;;;;;;;;4949879;29;20114;-72
2022/09/16 12:43:18;;;;;;;4.63;1.70;;;;;;;;;;4951422;28;20051;-72
2022/09/16 12:46:08;;;;;;;3.90;1.73;;;;;;;;;;4951189;28;20593;-73
2022/09/16 12:48:53;;;;;;;4.75;1.45;;;;;;;;;;4951305;28;20051;-69
2022/09/16 12:51:48;;;;;;;8.32;1.50;;;;;;;;;;4951488;28;20423;-71
2022/09/16 12:54:37;;;;;;;6.50;1.30;;;;;;;;;;4951267;28;20065;-72
2022/09/16 12:57:24;;;;;;;3.13;1.63;;;;;;;;;;4939839;29;20043;-71
2022/09/16 12:59:58;;;;;;;3.55;1.30;;;;;;;;;;4951744;28;20568;-72
2022/09/16 13:02:34;;;;;;;5.07;1.75;;;;;;;;;;4951494;28;20043;-79
2022/09/16 13:05:16;;;;;;;2.28;1.30;;;;;;;;;;4966001;28;20105;-72
2022/09/16 13:07:49;;;;;;;6.97;1.48;;;;;;;;;;4951928;28;20196;-75
2022/09/16 13:10:19;;;;;;;3.22;1.10;;;;;;;;;;4951066;28;20051;-71
2022/09/16 13:12:53;;;;;;;6.05;1.40;;;;;;;;;;4969660;28;20409;-72
2022/09/16 13:15:39;;;;;;;3.58;1.27;;;;;;;;;;4957238;28;20058;-71
2022/09/16 13:18:20;;;;;;;3.90;1.23;;;;;;;;;;4955799;28;20075;-71
2022/09/16 13:21:27;;;;;;;4.45;1.30;;;;;;;;;;4944744;28;20075;-73
2022/09/16 13:24:13;;;;;;;3.85;1.10;;;;;;;;;;4953233;28;20048;-72
2022/09/16 13:26:42;;;;;;;4.38;1.30;;;;;;;;;;4954195;28;20122;-71
2022/09/16 13:29:42;;;;;;;3.80;1.65;;;;;;;;;;4953319;28;20040;-72
2022/09/16 13:32:37;;;;;;;4.60;1.60;;;;;;;;;;4956632;28;20076;-73
2022/09/16 13:35:15;;;;;;;3.63;1.48;;;;;;;;;;4961979;28;20058;-72
2022/09/16 13:37:41;;;;;;;4.40;1.40;;;;;;;;;;4985036;28;20047;-73
2022/09/16 13:40:15;;;;;;;7.95;1.58;;;;;;;;;;4954158;28;20053;-71
2022/09/16 13:42:40;;;;;;;;;;;;;;;;;;4959617;28;20121;-73
2022/09/16 13:45:40;;;;;;;5.22;1.60;;;;;;;;;;4961666;28;19922;-73
2022/09/16 13:48:18;;;;;;;6.22;1.40;;;;;;;;;;4950910;28;20486;-77
2022/09/16 13:50:52;;;;;;;5.28;1.40;;;;;;;;;;4944518;28;20062;-75
2022/09/16 13:53:31;;;;;;;3.03;1.48;;;;;;;;;;4967099;28;20062;-73
2022/09/16 13:56:04;;;;;;;3.53;1.42;;;;;;;;;;4953192;28;20055;-73
2022/09/16 13:58:37;;;;;;;4.80;1.60;;;;;;;;;;4957701;28;20104;-73
2022/09/16 14:01:32;;;;;;;4.25;1.42;;;;;;;;;;4954861;28;20063;-72
2022/09/16 14:04:07;;;;;;;5.55;1.50;;;;;;;;;;4954176;28;20059;-73
2022/09/16 14:07:00;;;;;;;6.07;1.83;;;;;;;;;;4954429;28;20058;-73
2022/09/16 14:09:51;;;;;;;4.03;1.40;;;;;;;;;;4952758;28;20130;-73
2022/09/16 14:12:23;;;;;;;8.07;2.38;;;;;;;;;;4952681;28;20106;-75
2022/09/16 14:14:50;;;;;;;3.53;1.60;;;;;;;;;;4965830;28;20527;-73
2022/09/16 14:17:22;;;;;;;5.32;1.60;;;;;;;;;;4951380;28;20066;-75
2022/09/16 14:19:55;;;;;;;6.90;1.75;;;;;;;;;;4953433;28;20130;-75
2022/09/16 14:22:24;;;;;;;3.53;1.63;;;;;;;;;;4951731;28;20500;-73
2022/09/16 14:24:50;;;;;;;3.85;1.45;;;;;;;;;;4954035;28;20062;-74
2022/09/16 14:27:33;;;;;;;5.43;1.75;;;;;;;;;;4954225;28;20051;-76
2022/09/16 14:30:02;;;;;;;5.17;1.57;;;;;;;;;;4953040;28;20093;-74
2022/09/16 14:32:31;;;;;;;5.05;1.83;;;;;;;;;;4953241;28;20093;-72
2022/09/16 14:35:01;;;;;;;7.40;1.80;;;;;;;;;;4953259;28;20478;-72
2022/09/16 14:37:30;;;;;;;4.50;1.80;;;;;;;;;;4957280;28;20520;-70
2022/09/16 14:40:05;;;;;;;6.38;1.55;;;;;;;;;;4958924;28;20062;-78
2022/09/16 14:42:32;;;;;;;6.43;1.75;;;;;;;;;;4953818;28;20051;-73
2022/09/16 14:44:59;;;;;;;6.97;2.03;;;;;;;;;;4954135;28;20051;-72
2022/09/16 14:47:38;;;;;;;5.38;1.80;;;;;;;;;;4959936;28;20052;-75
2022/09/16 14:50:12;;;;;;;5.82;1.73;;;;;;;;;;4949021;29;20050;-74
2022/09/16 14:52:38;;;;;;;4.90;1.80;;;;;;;;;;4966174;28;20117;-77
2022/09/16 14:55:18;;;;;;;4.80;1.67;;;;;;;;;;4954060;28;20450;-76
2022/09/16 14:57:44;;;;;;;3.88;1.60;;;;;;;;;;4966750;28;20054;-74
2022/09/16 15:00:16;;;;;;;6.28;1.88;;;;;;;;;;4954833;28;20047;-74
2022/09/16 15:02:44;;;;;;;5.22;1.80;;;;;;;;;;4949120;28;20047;-77
2022/09/16 15:05:16;;;;;;;4.55;1.67;;;;;;;;;;4952872;28;20051;-75
2022/09/16 15:07:43;;;;;;;5.85;2.05;;;;;;;;;;4950424;28;20106;-75
2022/09/16 15:10:26;;;;;;;5.72;1.75;;;;;;;;;;4949054;28;20035;-80
2022/09/16 15:13:08;;;;;;;7.10;1.83;;;;;;;;;;4955253;29;20123;-77
2022/09/16 15:15:35;;;;;;;5.35;1.60;;;;;;;;;;4946970;28;20077;-79
2022/09/16 15:18:23;;;;;;;13.98;1.90;;;;;;;;;;4952311;28;20059;-79
2022/09/16 15:21:12;;;;;;;6.35;2.10;;;;;;;;;;4950813;28;20043;-79
2022/09/16 15:23:40;;;;;;;5.50;1.60;;;;;;;;;;4949786;28;20117;-79
2022/09/16 15:26:21;;;;;;;6.05;1.63;;;;;;;;;;4954595;28;20043;-77
2022/09/16 15:28:51;;;;;;;7.85;1.60;;;;;;;;;;4957498;28;20513;-77